createdAt,value
2023-10-14T00:01:29.769Z,88.49
2023-10-14T00:03:58.435Z,89.91
2023-10-14T00:06:28.169Z,89.23
2023-10-14T00:08:58.821Z,91.81
2023-10-14T00:11:34.226Z,94.71
2023-10-14T00:14:04.130Z,96.04
2023-10-14T00:16:36.747Z,97.94
2023-10-14T00:19:06.099Z,98.74
2023-10-14T00:21:35.957Z,99.82
2023-10-14T00:24:07.604Z,100.00
2023-10-14T00:26:37.160Z,100.00
2023-10-14T00:29:21.157Z,100.00
2023-10-14T00:31:51.077Z,100.00
2023-10-14T00:34:22.827Z,100.00
2023-10-14T00:36:50.956Z,100.00
2023-10-14T00:39:24.425Z,100.00
2023-10-14T00:41:54.112Z,100.00
2023-10-14T00:44:25.429Z,100.00
2023-10-14T00:46:55.148Z,100.00
2023-10-14T00:49:32.107Z,100.00
2023-10-14T00:52:02.227Z,100.00
2023-10-14T00:54:41.808Z,100.00
2023-10-14T00:57:21.324Z,100.00
2023-10-14T00:59:54.989Z,100.00
2023-10-14T01:02:30.750Z,100.00
2023-10-14T01:05:07.938Z,100.00
2023-10-14T01:07:36.067Z,100.00
2023-10-14T01:10:06.791Z,100.00
2023-10-14T01:12:41.305Z,100.00
2023-10-14T01:15:18.425Z,100.00
2023-10-14T01:17:46.566Z,100.00
2023-10-14T01:20:27.534Z,100.00
2023-10-14T01:22:59.541Z,100.00
2023-10-14T01:25:31.809Z,100.00
2023-10-14T01:28:00.698Z,100.00
2023-10-14T01:30:38.892Z,100.00
2023-10-14T01:33:14.169Z,100.00
2023-10-14T01:35:44.160Z,100.00
2023-10-14T01:38:14.746Z,100.00
2023-10-14T01:40:50.326Z,100.00
2023-10-14T01:43:19.261Z,100.00
2023-10-14T01:45:52.239Z,100.00
2023-10-14T01:48:22.904Z,100.00
2023-10-14T01:50:55.816Z,100.00
2023-10-14T01:53:28.162Z,100.00
2023-10-14T01:56:00.994Z,100.00
2023-10-14T01:58:35.532Z,100.00
2023-10-14T02:01:08.897Z,100.00
2023-10-14T02:03:43.656Z,100.00
2023-10-14T02:06:19.268Z,100.00
2023-10-14T02:08:52.109Z,100.00
2023-10-14T02:11:21.902Z,100.00
2023-10-14T02:13:52.627Z,100.00
2023-10-14T02:16:26.673Z,100.00
2023-10-14T02:19:04.529Z,100.00
2023-10-14T02:21:34.694Z,100.00
2023-10-14T02:24:05.782Z,100.00
2023-10-14T02:26:34.953Z,100.00
2023-10-14T02:29:07.745Z,100.00
2023-10-14T02:31:37.870Z,100.00
2023-10-14T02:34:08.198Z,100.00
2023-10-14T02:36:43.141Z,100.00
2023-10-14T02:39:16.127Z,100.00
2023-10-14T02:41:46.367Z,100.00
2023-10-14T02:44:29.296Z,100.00
2023-10-14T02:47:03.035Z,100.00
2023-10-14T02:49:36.759Z,100.00
2023-10-14T02:52:09.929Z,100.00
2023-10-14T02:54:43.526Z,100.00
2023-10-14T02:57:25.483Z,100.00
2023-10-14T02:59:57.230Z,100.00
2023-10-14T03:02:28.544Z,100.00
2023-10-14T03:05:11.526Z,100.00
2023-10-14T03:07:49.477Z,100.00
2023-10-14T03:10:35.627Z,100.00
2023-10-14T03:13:03.615Z,100.00
2023-10-14T03:15:33.444Z,100.00
2023-10-14T03:18:02.770Z,100.00
2023-10-14T03:20:40.877Z,100.00
2023-10-14T03:23:19.071Z,100.00
2023-10-14T03:25:50.946Z,100.00
2023-10-14T03:28:21.468Z,100.00
2023-10-14T03:30:56.300Z,100.00
2023-10-14T03:33:28.971Z,100.00
2023-10-14T03:36:01.698Z,100.00
2023-10-14T03:38:41.867Z,100.00
2023-10-14T03:41:20.227Z,100.00
2023-10-14T03:43:55.365Z,100.00
2023-10-14T03:46:33.710Z,100.00
2023-10-14T03:49:09.675Z,100.00
2023-10-14T03:51:40.954Z,100.00
2023-10-14T03:54:10.436Z,100.00
2023-10-14T03:56:45.863Z,100.00
2023-10-14T03:59:21.723Z,100.00
2023-10-14T04:01:55.837Z,100.00
2023-10-14T04:04:25.101Z,100.00
2023-10-14T04:07:14.267Z,100.00
2023-10-14T04:09:45.619Z,100.00
2023-10-14T04:12:31.477Z,100.00
2023-10-14T04:15:06.755Z,100.00
2023-10-14T04:17:35.497Z,100.00
2023-10-14T04:20:23.079Z,100.00
2023-10-14T04:22:54.170Z,100.00
2023-10-14T04:25:23.606Z,100.00
2023-10-14T04:28:12.493Z,100.00
2023-10-14T04:30:43.556Z,100.00
2023-10-14T04:33:25.325Z,100.00
2023-10-14T04:36:09.753Z,100.00
2023-10-14T04:38:43.831Z,100.00
2023-10-14T04:41:15.305Z,100.00
2023-10-14T04:44:01.937Z,100.00
2023-10-14T04:46:47.221Z,100.00
2023-10-14T04:49:18.077Z,100.00
2023-10-14T04:51:49.113Z,100.00
2023-10-14T04:54:20.946Z,100.00
2023-10-14T04:56:50.136Z,100.00
2023-10-14T04:59:26.229Z,100.00
2023-10-14T05:01:57.152Z,100.00
2023-10-14T05:04:31.688Z,100.00
2023-10-14T05:07:06.244Z,100.00
2023-10-14T05:09:40.943Z,100.00
2023-10-14T05:12:09.558Z,100.00
2023-10-14T05:14:38.872Z,100.00
2023-10-14T05:17:15.862Z,100.00
2023-10-14T05:19:44.735Z,100.00
2023-10-14T05:22:20.318Z,100.00
2023-10-14T05:24:50.827Z,100.00
2023-10-14T05:27:20.783Z,100.00
2023-10-14T05:29:52.755Z,100.00
2023-10-14T05:32:24.986Z,100.00
2023-10-14T05:34:53.665Z,100.00
2023-10-14T05:37:22.902Z,100.00
2023-10-14T05:39:51.966Z,100.00
2023-10-14T05:42:22.381Z,100.00
2023-10-14T05:44:59.164Z,100.00
2023-10-14T05:47:28.623Z,100.00
2023-10-14T05:49:57.158Z,100.00
2023-10-14T05:52:26.282Z,100.00
2023-10-14T05:54:54.612Z,100.00
2023-10-14T05:57:23.806Z,100.00
2023-10-14T05:59:53.597Z,100.00
2023-10-14T06:02:21.573Z,100.00
2023-10-14T06:04:51.748Z,100.00
2023-10-14T06:07:20.742Z,100.00
2023-10-14T06:09:48.829Z,100.00
2023-10-14T06:12:18.218Z,100.00
2023-10-14T06:14:48.041Z,100.00
2023-10-14T06:17:17.627Z,100.00
2023-10-14T06:19:45.702Z,100.00
2023-10-14T06:22:14.686Z,100.00
2023-10-14T06:24:43.501Z,100.00
2023-10-14T06:27:22.273Z,100.00
2023-10-14T06:29:52.008Z,100.00
2023-10-14T06:32:22.416Z,100.00
2023-10-14T06:34:59.672Z,100.00
2023-10-14T06:37:28.742Z,100.00
2023-10-14T06:39:58.058Z,100.00
2023-10-14T06:42:27.902Z,100.00
2023-10-14T06:44:56.287Z,100.00
2023-10-14T06:47:25.638Z,100.00
2023-10-14T06:49:55.366Z,100.00
2023-10-14T06:52:23.392Z,100.00
2023-10-14T06:54:54.403Z,100.00
2023-10-14T06:57:23.374Z,100.00
2023-10-14T06:59:51.459Z,100.00
2023-10-14T07:02:19.952Z,100.00
2023-10-14T07:04:51.424Z,100.00
2023-10-14T07:07:20.764Z,100.00
2023-10-14T07:09:49.185Z,100.00
2023-10-14T07:12:21.130Z,100.00
2023-10-14T07:14:49.452Z,100.00
2023-10-14T07:17:23.510Z,100.00
2023-10-14T07:19:52.905Z,100.00
2023-10-14T07:22:22.525Z,100.00
2023-10-14T07:24:52.112Z,100.00
2023-10-14T07:27:21.622Z,100.00
2023-10-14T07:29:49.687Z,100.00
2023-10-14T07:32:20.750Z,100.00
2023-10-14T07:34:51.653Z,100.00
2023-10-14T07:37:21.488Z,100.00
2023-10-14T07:39:53.767Z,100.00
2023-10-14T07:42:22.955Z,100.00
2023-10-14T07:44:53.240Z,100.00
2023-10-14T07:47:25.227Z,100.00
2023-10-14T07:49:55.610Z,100.00
2023-10-14T07:52:25.003Z,100.00
2023-10-14T07:54:53.442Z,100.00
2023-10-14T07:57:22.458Z,100.00
2023-10-14T07:59:51.777Z,100.00
2023-10-14T08:02:20.125Z,100.00
2023-10-14T08:04:48.196Z,100.00
2023-10-14T08:07:16.234Z,100.00
2023-10-14T08:09:45.561Z,100.00
2023-10-14T08:12:15.360Z,100.00
2023-10-14T08:14:45.683Z,100.00
2023-10-14T08:17:13.829Z,100.00
2023-10-14T08:19:42.188Z,100.00
2023-10-14T08:22:15.393Z,100.00
2023-10-14T08:24:46.939Z,100.00
2023-10-14T08:27:14.959Z,100.00
2023-10-14T08:29:43.523Z,100.00
2023-10-14T08:32:11.841Z,100.00
2023-10-14T08:34:39.733Z,100.00
2023-10-14T08:37:09.033Z,100.00
2023-10-14T08:39:37.073Z,100.00
2023-10-14T08:42:10.917Z,100.00
2023-10-14T08:44:44.985Z,100.00
2023-10-14T08:47:15.680Z,100.00
2023-10-14T08:49:44.188Z,100.00
2023-10-14T08:52:17.702Z,100.00
2023-10-14T08:54:47.521Z,100.00
2023-10-14T08:57:17.299Z,100.00
2023-10-14T08:59:45.543Z,100.00
2023-10-14T09:02:15.057Z,100.00
2023-10-14T09:04:43.122Z,100.00
2023-10-14T09:07:15.371Z,100.00
2023-10-14T09:09:43.434Z,100.00
2023-10-14T09:12:13.454Z,100.00
2023-10-14T09:14:44.057Z,100.00
2023-10-14T09:17:13.386Z,100.00
2023-10-14T09:19:46.857Z,100.00
2023-10-14T09:22:22.818Z,100.00
2023-10-14T09:24:52.181Z,100.00
2023-10-14T09:27:21.130Z,100.00
2023-10-14T09:29:50.501Z,100.00
2023-10-14T09:32:19.403Z,100.00
2023-10-14T09:34:47.476Z,100.00
2023-10-14T09:37:19.117Z,100.00
2023-10-14T09:39:51.182Z,100.00
2023-10-14T09:42:23.142Z,100.00
2023-10-14T09:44:54.434Z,100.00
2023-10-14T09:47:23.757Z,100.00
2023-10-14T09:49:54.491Z,100.00
2023-10-14T09:52:23.459Z,100.00
2023-10-14T09:54:53.594Z,100.00
2023-10-14T09:57:23.396Z,100.00
2023-10-14T09:59:55.641Z,100.00
2023-10-14T10:02:24.561Z,100.00
2023-10-14T10:04:55.391Z,100.00
2023-10-14T10:07:43.478Z,99.02
2023-10-14T10:10:17.267Z,94.35
2023-10-14T10:12:54.154Z,96.22
2023-10-14T10:15:25.469Z,98.06
2023-10-14T10:17:59.115Z,95.45
2023-10-14T10:20:36.681Z,88.54
2023-10-14T10:23:05.052Z,83.92
2023-10-14T10:25:50.878Z,84.88
2023-10-14T10:28:38.684Z,83.39
2023-10-14T10:31:10.979Z,81.95
2023-10-14T10:34:04.848Z,82.05
2023-10-14T10:36:37.643Z,82.30
2023-10-14T10:39:17.137Z,81.60
2023-10-14T10:41:48.565Z,77.83
2023-10-14T10:44:20.118Z,77.50
2023-10-14T10:46:51.899Z,78.91
2023-10-14T10:50:04.154Z,79.37
2023-10-14T10:52:37.584Z,77.49
2023-10-14T10:55:07.110Z,75.59
2023-10-14T10:57:37.169Z,77.05
2023-10-14T11:00:10.801Z,73.83
2023-10-14T11:02:40.983Z,73.18
2023-10-14T11:05:09.564Z,74.72
2023-10-14T11:07:37.557Z,74.58
2023-10-14T11:10:06.219Z,70.41
2023-10-14T11:12:37.045Z,71.95
2023-10-14T11:15:09.000Z,71.42
2023-10-14T11:17:41.216Z,67.86
2023-10-14T11:20:10.628Z,68.41
2023-10-14T11:22:38.764Z,70.36
2023-10-14T11:25:13.914Z,68.05
2023-10-14T11:27:48.323Z,64.71
2023-10-14T11:30:18.885Z,66.21
2023-10-14T11:32:53.517Z,68.55
2023-10-14T11:35:23.555Z,70.39
2023-10-14T11:37:58.323Z,73.66
2023-10-14T11:40:34.388Z,72.17
2023-10-14T11:43:02.456Z,69.31
2023-10-14T11:45:31.862Z,66.63
2023-10-14T11:48:01.611Z,66.23
2023-10-14T11:50:31.492Z,63.28
2023-10-14T11:52:59.414Z,61.62
2023-10-14T11:55:28.910Z,59.77
2023-10-14T11:57:56.934Z,56.57
2023-10-14T12:00:25.067Z,56.50
2023-10-14T12:02:53.494Z,56.00
2023-10-14T12:05:23.114Z,55.68
2023-10-14T12:07:52.529Z,53.38
2023-10-14T12:10:27.091Z,56.93
2023-10-14T12:12:55.905Z,56.25
2023-10-14T12:15:23.959Z,55.38
2023-10-14T12:17:52.000Z,55.39
2023-10-14T12:20:23.440Z,54.43
2023-10-14T12:22:52.836Z,51.00
2023-10-14T12:25:20.965Z,49.67
2023-10-14T12:27:49.571Z,52.02
2023-10-14T12:30:36.834Z,50.42
2023-10-14T12:33:06.156Z,48.82
2023-10-14T12:35:34.835Z,48.54
2023-10-14T12:38:04.199Z,47.39
2023-10-14T12:40:34.774Z,46.20
2023-10-14T12:43:04.365Z,45.09
2023-10-14T12:45:33.356Z,46.32
2023-10-14T12:48:10.482Z,48.23
2023-10-14T12:50:41.650Z,50.50
2023-10-14T12:53:12.124Z,52.62
2023-10-14T12:55:43.196Z,54.87
2023-10-14T12:58:11.278Z,54.69
2023-10-14T13:00:39.252Z,55.98
2023-10-14T13:03:10.824Z,53.77
2023-10-14T13:05:40.206Z,54.17
2023-10-14T13:08:08.495Z,53.93
2023-10-14T13:10:37.997Z,53.27
2023-10-14T13:13:06.248Z,53.35
2023-10-14T13:15:36.235Z,53.43
2023-10-14T13:18:08.120Z,54.16
2023-10-14T13:20:37.472Z,54.23
2023-10-14T13:23:10.419Z,54.52
2023-10-14T13:25:40.935Z,54.69
2023-10-14T13:28:11.062Z,55.05
2023-10-14T13:30:46.219Z,55.71
2023-10-14T13:33:15.083Z,56.57
2023-10-14T13:35:43.857Z,57.67
2023-10-14T13:38:12.837Z,57.92
2023-10-14T13:40:42.968Z,57.72
2023-10-14T13:43:14.627Z,57.17
2023-10-14T13:45:43.655Z,58.01
2023-10-14T13:48:15.142Z,58.70
2023-10-14T13:50:43.474Z,55.55
2023-10-14T13:53:18.278Z,56.14
2023-10-14T13:55:47.836Z,55.21
2023-10-14T13:58:16.001Z,55.75
2023-10-14T14:00:45.760Z,56.04
2023-10-14T14:03:15.579Z,56.07
2023-10-14T14:05:48.527Z,56.41
2023-10-14T14:08:18.321Z,57.05
2023-10-14T14:10:48.087Z,57.18
2023-10-14T14:13:18.622Z,56.96
2023-10-14T14:15:48.084Z,56.99
2023-10-14T14:18:16.314Z,58.41
2023-10-14T14:20:44.270Z,57.33
2023-10-14T14:23:17.014Z,58.65
2023-10-14T14:25:45.278Z,60.44
2023-10-14T14:28:14.794Z,60.38
2023-10-14T14:30:42.752Z,62.53
2023-10-14T14:33:11.180Z,61.98
2023-10-14T14:35:39.417Z,60.12
2023-10-14T14:38:09.441Z,61.34
2023-10-14T14:40:41.908Z,60.00
2023-10-14T14:43:10.961Z,66.40
2023-10-14T14:45:41.720Z,93.21
2023-10-14T14:48:11.351Z,100.00
2023-10-14T14:50:45.652Z,100.00
2023-10-14T14:53:13.577Z,100.00
2023-10-14T14:55:43.962Z,100.00
2023-10-14T14:58:15.814Z,100.00
2023-10-14T15:00:46.172Z,100.00
2023-10-14T15:03:14.232Z,100.00
2023-10-14T15:05:43.837Z,100.00
2023-10-14T15:08:13.836Z,100.00
2023-10-14T15:10:46.321Z,100.00
2023-10-14T15:13:15.926Z,100.00
2023-10-14T15:15:50.922Z,100.00
2023-10-14T15:18:20.905Z,100.00
2023-10-14T15:20:48.951Z,100.00
2023-10-14T15:23:16.944Z,100.00
2023-10-14T15:25:45.540Z,100.00
2023-10-14T15:28:13.748Z,100.00
2023-10-14T15:30:42.366Z,100.00
2023-10-14T15:33:12.728Z,100.00
2023-10-14T15:35:40.745Z,100.00
2023-10-14T15:38:09.678Z,95.50
2023-10-14T15:40:38.062Z,98.58
2023-10-14T15:43:07.046Z,98.75
2023-10-14T15:45:37.376Z,98.10
2023-10-14T15:48:10.432Z,94.94
2023-10-14T15:50:44.929Z,92.05
2023-10-14T15:53:13.626Z,94.03
2023-10-14T15:55:43.225Z,93.24
2023-10-14T15:58:14.118Z,100.00
2023-10-14T16:00:48.536Z,100.00
2023-10-14T16:03:17.492Z,100.00
2023-10-14T16:05:47.011Z,100.00
2023-10-14T16:08:17.364Z,95.59
2023-10-14T16:10:47.065Z,99.80
2023-10-14T16:13:16.366Z,100.00
2023-10-14T16:15:45.191Z,100.00
2023-10-14T16:18:13.727Z,100.00
2023-10-14T16:20:44.525Z,100.00
2023-10-14T16:23:13.824Z,100.00
2023-10-14T16:25:43.354Z,100.00
2023-10-14T16:28:14.805Z,100.00
2023-10-14T16:30:42.730Z,100.00
2023-10-14T16:33:12.138Z,100.00
2023-10-14T16:35:42.226Z,100.00
2023-10-14T16:38:11.277Z,100.00
2023-10-14T16:40:40.691Z,100.00
2023-10-14T16:43:09.619Z,100.00
2023-10-14T16:45:38.100Z,100.00
2023-10-14T16:48:09.255Z,100.00
2023-10-14T16:50:38.759Z,100.00
2023-10-14T16:53:08.612Z,100.00
2023-10-14T16:55:37.137Z,100.00
2023-10-14T16:58:07.741Z,100.00
2023-10-14T17:00:36.039Z,100.00
2023-10-14T17:03:07.010Z,100.00
2023-10-14T17:05:35.380Z,100.00
2023-10-14T17:08:05.591Z,100.00
2023-10-14T17:10:36.330Z,100.00
2023-10-14T17:13:07.380Z,100.00
2023-10-14T17:15:35.488Z,100.00
2023-10-14T17:18:07.322Z,100.00
2023-10-14T17:20:36.558Z,100.00
2023-10-14T17:23:06.002Z,100.00
2023-10-14T17:25:35.133Z,100.00
2023-10-14T17:28:06.018Z,100.00
2023-10-14T17:30:34.756Z,100.00
2023-10-14T17:33:04.405Z,100.00
2023-10-14T17:35:33.004Z,100.00
2023-10-14T17:38:02.564Z,100.00
2023-10-14T17:40:31.530Z,100.00
2023-10-14T17:43:06.315Z,100.00
2023-10-14T17:45:36.646Z,100.00
2023-10-14T17:48:07.012Z,100.00
2023-10-14T17:50:36.500Z,100.00
2023-10-14T17:53:10.759Z,100.00
2023-10-14T17:55:38.727Z,100.00
2023-10-14T17:58:06.893Z,100.00
2023-10-14T18:00:36.386Z,100.00
2023-10-14T18:03:09.081Z,100.00
2023-10-14T18:05:41.898Z,100.00
2023-10-14T18:08:11.141Z,100.00
2023-10-14T18:10:39.206Z,100.00
2023-10-14T18:13:09.379Z,100.00
2023-10-14T18:15:41.500Z,100.00
2023-10-14T18:18:09.881Z,100.00
2023-10-14T18:20:38.835Z,100.00
2023-10-14T18:23:08.134Z,100.00
2023-10-14T18:25:39.719Z,100.00
2023-10-14T18:28:08.779Z,100.00
2023-10-14T18:30:40.964Z,100.00
2023-10-14T18:33:12.165Z,100.00
2023-10-14T18:35:41.339Z,100.00
2023-10-14T18:38:11.594Z,100.00
2023-10-14T18:40:40.672Z,100.00
2023-10-14T18:43:09.671Z,100.00
2023-10-14T18:45:40.675Z,100.00
2023-10-14T18:48:09.954Z,100.00
2023-10-14T18:50:39.823Z,100.00
2023-10-14T18:53:09.534Z,100.00
2023-10-14T18:55:39.240Z,100.00
2023-10-14T18:58:10.356Z,100.00
2023-10-14T19:00:43.400Z,100.00
2023-10-14T19:03:12.374Z,100.00
2023-10-14T19:05:40.743Z,100.00
2023-10-14T19:08:11.558Z,100.00
2023-10-14T19:10:42.552Z,100.00
2023-10-14T19:13:12.247Z,100.00
2023-10-14T19:15:47.492Z,100.00
2023-10-14T19:18:20.110Z,100.00
2023-10-14T19:20:48.955Z,100.00
2023-10-14T19:23:19.332Z,100.00
2023-10-14T19:25:50.591Z,100.00
2023-10-14T19:28:22.255Z,100.00
2023-10-14T19:30:53.389Z,100.00
2023-10-14T19:33:22.801Z,100.00
2023-10-14T19:35:52.733Z,100.00
2023-10-14T19:38:21.833Z,100.00
2023-10-14T19:40:51.009Z,100.00
2023-10-14T19:43:19.080Z,100.00
2023-10-14T19:45:48.789Z,100.00
2023-10-14T19:48:19.006Z,100.00
2023-10-14T19:50:46.948Z,100.00
2023-10-14T19:53:15.049Z,100.00
2023-10-14T19:55:45.608Z,100.00
2023-10-14T19:58:14.894Z,100.00
2023-10-14T20:00:43.800Z,100.00
2023-10-14T20:03:13.656Z,100.00
2023-10-14T20:05:47.099Z,100.00
2023-10-14T20:08:18.241Z,100.00
2023-10-14T20:10:47.268Z,100.00
2023-10-14T20:13:17.186Z,100.00
2023-10-14T20:15:47.592Z,100.00
2023-10-14T20:18:17.986Z,100.00
2023-10-14T20:20:50.425Z,100.00
2023-10-14T20:23:19.841Z,100.00
2023-10-14T20:25:50.696Z,100.00
2023-10-14T20:28:19.091Z,100.00
2023-10-14T20:30:50.221Z,100.00
2023-10-14T20:33:18.734Z,100.00
2023-10-14T20:35:48.821Z,100.00
2023-10-14T20:38:16.810Z,100.00
2023-10-14T20:40:46.042Z,100.00
2023-10-14T20:43:15.050Z,100.00
2023-10-14T20:45:45.908Z,100.00
2023-10-14T20:48:15.181Z,100.00
2023-10-14T20:50:48.987Z,100.00
2023-10-14T20:53:19.209Z,100.00
2023-10-14T20:55:47.618Z,100.00
2023-10-14T20:58:16.364Z,99.63
2023-10-14T21:00:44.647Z,97.61
2023-10-14T21:03:21.214Z,96.51
2023-10-14T21:05:53.430Z,98.77
2023-10-14T21:08:25.653Z,99.51
2023-10-14T21:10:56.695Z,100.00
2023-10-14T21:13:27.143Z,100.00
2023-10-14T21:16:00.787Z,100.00
2023-10-14T21:18:29.103Z,100.00
2023-10-14T21:20:57.179Z,100.00
2023-10-14T21:23:26.994Z,100.00
2023-10-14T21:25:56.497Z,100.00
2023-10-14T21:28:25.005Z,100.00
2023-10-14T21:30:53.073Z,100.00
2023-10-14T21:33:21.528Z,100.00
2023-10-14T21:35:51.756Z,100.00
2023-10-14T21:38:19.730Z,100.00
2023-10-14T21:40:49.804Z,100.00
2023-10-14T21:43:19.174Z,100.00
2023-10-14T21:45:47.518Z,100.00
2023-10-14T21:48:15.811Z,100.00
2023-10-14T21:50:44.289Z,100.00
2023-10-14T21:53:13.460Z,100.00
2023-10-14T21:55:42.367Z,99.33
2023-10-14T21:58:15.048Z,99.32
2023-10-14T22:00:50.117Z,100.00
2023-10-14T22:03:21.001Z,99.19
2023-10-14T22:05:49.900Z,100.00
2023-10-14T22:08:19.667Z,100.00
2023-10-14T22:10:51.318Z,100.00
2023-10-14T22:13:22.469Z,100.00
2023-10-14T22:15:50.697Z,100.00
2023-10-14T22:18:18.640Z,100.00
2023-10-14T22:20:46.531Z,100.00
2023-10-14T22:23:14.477Z,100.00
2023-10-14T22:25:46.561Z,100.00
2023-10-14T22:28:16.673Z,100.00
2023-10-14T22:30:47.116Z,100.00
2023-10-14T22:33:15.447Z,100.00
2023-10-14T22:35:45.264Z,100.00
2023-10-14T22:38:13.505Z,100.00
2023-10-14T22:40:44.694Z,100.00
2023-10-14T22:43:13.143Z,100.00
2023-10-14T22:45:41.225Z,100.00
2023-10-14T22:48:11.124Z,100.00
2023-10-14T22:50:39.580Z,100.00
2023-10-14T22:53:11.280Z,100.00
2023-10-14T22:55:39.956Z,100.00
2023-10-14T22:58:07.961Z,100.00
2023-10-14T23:00:37.015Z,100.00
2023-10-14T23:03:10.449Z,100.00
2023-10-14T23:05:43.028Z,100.00
2023-10-14T23:08:13.670Z,100.00
2023-10-14T23:10:42.621Z,100.00
2023-10-14T23:13:10.573Z,100.00
2023-10-14T23:15:40.298Z,100.00
2023-10-14T23:18:10.613Z,100.00
2023-10-14T23:20:38.875Z,100.00
2023-10-14T23:23:08.434Z,100.00
2023-10-14T23:25:37.063Z,100.00
2023-10-14T23:28:07.934Z,100.00
2023-10-14T23:30:36.364Z,100.00
2023-10-14T23:33:05.143Z,100.00
2023-10-14T23:35:35.127Z,100.00
2023-10-14T23:38:07.093Z,100.00
2023-10-14T23:40:36.943Z,100.00
2023-10-14T23:43:09.711Z,100.00
2023-10-14T23:45:37.780Z,100.00
2023-10-14T23:48:06.712Z,100.00
2023-10-14T23:50:37.064Z,100.00
2023-10-14T23:53:07.621Z,100.00
2023-10-14T23:55:37.110Z,100.00
2023-10-14T23:58:05.578Z,100.00
